createdAt,value
2023-03-22T00:01:36.812Z,100652.51
2023-03-22T00:04:09.310Z,100654.23
2023-03-22T00:06:41.251Z,100652.25
2023-03-22T00:09:13.484Z,100650.17
2023-03-22T00:11:46.367Z,100644.21
2023-03-22T00:14:18.564Z,100642.23
2023-03-22T00:16:50.531Z,100639.77
2023-03-22T00:19:23.901Z,100637.58
2023-03-22T00:21:55.812Z,100635.73
2023-03-22T00:24:27.788Z,100637.24
2023-03-22T00:27:00.513Z,100636.53
2023-03-22T00:29:32.840Z,100633.66
2023-03-22T00:32:04.970Z,100632.91
2023-03-22T00:34:37.524Z,100627.67
2023-03-22T00:37:09.551Z,100623.81
2023-03-22T00:39:41.746Z,100622.98
2023-03-22T00:42:13.704Z,100625.05
2023-03-22T00:44:46.288Z,100628.44
2023-03-22T00:47:18.440Z,100630.73
2023-03-22T00:49:50.537Z,100631.26
2023-03-22T00:52:22.839Z,100629.92
2023-03-22T00:54:54.830Z,100626.82
2023-03-22T00:57:27.003Z,100624.71
2023-03-22T01:00:08.310Z,100622.80
2023-03-22T01:02:40.370Z,100620.62
2023-03-22T01:05:16.758Z,100620.66
2023-03-22T01:07:50.820Z,100616.38
2023-03-22T01:10:21.608Z,100612.41
2023-03-22T01:12:54.290Z,100614.91
2023-03-22T01:15:26.416Z,100611.60
2023-03-22T01:17:58.304Z,100610.30
2023-03-22T01:20:33.324Z,100605.69
2023-03-22T01:23:05.176Z,100604.46
2023-03-22T01:25:38.081Z,100602.36
2023-03-22T01:28:10.148Z,100604.77
2023-03-22T01:30:43.169Z,100605.05
2023-03-22T01:33:15.437Z,100603.04
2023-03-22T01:35:47.798Z,100600.84
2023-03-22T01:38:19.986Z,100602.31
2023-03-22T01:40:54.902Z,100602.38
2023-03-22T01:43:29.264Z,100598.20
2023-03-22T01:46:01.558Z,100599.48
2023-03-22T01:48:35.266Z,100593.80
2023-03-22T01:51:11.134Z,100592.39
2023-03-22T01:53:46.323Z,100590.45
2023-03-22T01:56:20.098Z,100588.07
2023-03-22T01:58:52.761Z,100584.69
2023-03-22T02:01:25.956Z,100584.14
2023-03-22T02:04:02.264Z,100585.64
2023-03-22T02:06:38.264Z,100585.38
2023-03-22T02:09:11.897Z,100581.30
2023-03-22T02:11:51.424Z,100577.83
2023-03-22T02:14:31.749Z,100579.38
2023-03-22T02:17:15.912Z,100575.81
2023-03-22T02:20:19.743Z,100577.73
2023-03-22T02:23:08.485Z,100571.54
2023-03-22T02:26:09.382Z,100571.19
2023-03-22T02:28:46.874Z,100566.38
2023-03-22T02:31:30.776Z,100564.73
2023-03-22T02:34:29.067Z,100567.30
2023-03-22T02:37:35.668Z,100566.96
2023-03-22T02:40:10.859Z,100566.98
2023-03-22T02:42:49.621Z,100564.67
2023-03-22T02:45:29.342Z,100566.26
2023-03-22T02:48:09.512Z,100569.27
2023-03-22T02:50:44.955Z,100564.96
2023-03-22T02:53:20.190Z,100560.30
2023-03-22T02:55:55.938Z,100555.38
2023-03-22T02:58:30.493Z,100554.75
2023-03-22T03:01:06.149Z,100555.84
2023-03-22T03:03:39.774Z,100553.60
2023-03-22T03:06:14.749Z,100548.38
2023-03-22T03:08:47.911Z,100546.06
2023-03-22T03:11:20.839Z,100543.91
2023-03-22T03:13:53.450Z,100542.91
2023-03-22T03:16:28.554Z,100541.98
2023-03-22T03:19:04.823Z,100544.60
2023-03-22T03:21:42.719Z,100546.45
2023-03-22T03:24:22.262Z,100548.30
2023-03-22T03:27:00.619Z,100547.16
2023-03-22T03:29:38.189Z,100544.16
2023-03-22T03:32:14.441Z,100540.52
2023-03-22T03:34:49.763Z,100542.62
2023-03-22T03:37:24.077Z,100543.77
2023-03-22T03:39:58.879Z,100536.55
2023-03-22T03:42:32.531Z,100532.89
2023-03-22T03:45:05.351Z,100534.57
2023-03-22T03:47:37.807Z,100541.85
2023-03-22T03:50:11.920Z,100542.02
2023-03-22T03:52:46.122Z,100543.46
2023-03-22T03:55:16.384Z,100541.30
2023-03-22T03:57:48.734Z,100539.51
2023-03-22T04:00:21.626Z,100542.14
2023-03-22T04:02:53.915Z,100538.26
2023-03-22T04:05:26.134Z,100539.83
2023-03-22T04:07:58.421Z,100538.98
2023-03-22T04:10:30.375Z,100538.73
2023-03-22T04:13:02.475Z,100537.12
2023-03-22T04:15:34.305Z,100543.07
2023-03-22T04:18:07.255Z,100540.73
2023-03-22T04:20:41.863Z,100536.15
2023-03-22T04:23:14.395Z,100538.69
2023-03-22T04:25:53.510Z,100535.11
2023-03-22T04:28:26.537Z,100537.31
2023-03-22T04:30:59.289Z,100534.95
2023-03-22T04:33:39.677Z,100533.62
2023-03-22T04:36:16.063Z,100535.31
2023-03-22T04:38:48.135Z,100533.05
2023-03-22T04:41:20.022Z,100534.67
2023-03-22T04:43:52.710Z,100536.34
2023-03-22T04:46:24.755Z,100542.34
2023-03-22T04:48:57.409Z,100537.27
2023-03-22T04:51:33.420Z,100542.39
2023-03-22T04:54:06.005Z,100544.52
2023-03-22T04:56:37.788Z,100545.15
2023-03-22T04:59:11.292Z,100544.80
2023-03-22T05:01:43.121Z,100548.53
2023-03-22T05:04:15.748Z,100547.50
2023-03-22T05:06:48.084Z,100548.02
2023-03-22T05:09:23.251Z,100551.27
2023-03-22T05:11:55.899Z,100553.93
2023-03-22T05:14:28.518Z,100554.65
2023-03-22T05:17:00.438Z,100553.00
2023-03-22T05:19:33.520Z,100554.29
2023-03-22T05:22:05.391Z,100548.16
2023-03-22T05:24:37.686Z,100550.40
2023-03-22T05:27:11.100Z,100550.30
2023-03-22T05:29:45.322Z,100555.50
2023-03-22T05:32:18.521Z,100553.93
2023-03-22T05:34:50.611Z,100553.78
2023-03-22T05:37:22.665Z,100551.52
2023-03-22T05:39:54.985Z,100553.38
2023-03-22T05:42:27.126Z,100552.56
2023-03-22T05:44:59.348Z,100551.49
2023-03-22T05:47:31.249Z,100553.13
2023-03-22T05:50:03.878Z,100558.69
2023-03-22T05:52:35.736Z,100555.98
2023-03-22T05:55:09.488Z,100556.72
2023-03-22T05:57:41.661Z,100560.41
2023-03-22T06:00:17.331Z,100558.60
2023-03-22T06:02:56.490Z,100559.84
2023-03-22T06:05:28.668Z,100565.89
2023-03-22T06:08:00.624Z,100567.19
2023-03-22T06:10:32.709Z,100566.23
2023-03-22T06:13:06.117Z,100567.22
2023-03-22T06:15:38.779Z,100567.88
2023-03-22T06:18:11.224Z,100563.45
2023-03-22T06:20:45.048Z,100561.31
2023-03-22T06:23:17.476Z,100555.52
2023-03-22T06:25:49.612Z,100556.32
2023-03-22T06:28:21.458Z,100560.68
2023-03-22T06:30:54.126Z,100561.51
2023-03-22T06:33:26.247Z,100561.62
2023-03-22T06:35:59.079Z,100563.26
2023-03-22T06:38:31.325Z,100563.98
2023-03-22T06:41:03.758Z,100562.94
2023-03-22T06:43:36.082Z,100560.05
2023-03-22T06:46:09.056Z,100554.81
2023-03-22T06:48:40.916Z,100554.49
2023-03-22T06:51:12.915Z,100554.60
2023-03-22T06:53:45.540Z,100549.23
2023-03-22T06:56:17.666Z,100545.98
2023-03-22T06:58:51.828Z,100542.30
2023-03-22T07:01:24.141Z,100541.84
2023-03-22T07:03:56.056Z,100538.02
2023-03-22T07:06:28.731Z,100531.20
2023-03-22T07:09:02.032Z,100527.31
2023-03-22T07:11:34.469Z,100526.16
2023-03-22T07:14:06.390Z,100523.15
2023-03-22T07:16:39.713Z,100517.70
2023-03-22T07:19:18.140Z,100518.84
2023-03-22T07:21:50.216Z,100510.27
2023-03-22T07:24:22.102Z,100507.38
2023-03-22T07:26:54.217Z,100502.81
2023-03-22T07:29:26.164Z,100501.58
2023-03-22T07:31:58.575Z,100505.88
2023-03-22T07:34:30.567Z,100498.67
2023-03-22T07:37:03.228Z,100498.39
2023-03-22T07:39:35.268Z,100493.67
2023-03-22T07:42:07.681Z,100487.80
2023-03-22T07:44:39.549Z,100484.22
2023-03-22T07:47:12.014Z,100486.59
2023-03-22T07:49:43.857Z,100489.13
2023-03-22T07:52:16.403Z,100488.83
2023-03-22T07:54:48.164Z,100489.14
2023-03-22T07:57:20.873Z,100487.42
2023-03-22T07:59:52.704Z,100485.80
2023-03-22T08:02:25.971Z,100488.02
2023-03-22T08:04:57.961Z,100481.58
2023-03-22T08:07:31.750Z,100476.83
2023-03-22T08:10:03.586Z,100468.39
2023-03-22T08:12:37.592Z,100467.80
2023-03-22T08:15:11.628Z,100468.39
2023-03-22T08:17:43.918Z,100467.17
2023-03-22T08:20:18.538Z,100465.17
2023-03-22T08:22:50.959Z,100466.08
2023-03-22T08:25:23.632Z,100455.18
2023-03-22T08:27:56.134Z,100454.71
2023-03-22T08:30:28.037Z,100452.16
2023-03-22T08:33:00.419Z,100452.90
2023-03-22T08:35:32.581Z,100454.73
2023-03-22T08:38:05.607Z,100450.48
2023-03-22T08:40:37.548Z,100448.71
2023-03-22T08:43:12.359Z,100447.38
2023-03-22T08:45:44.173Z,100451.14
2023-03-22T08:48:16.875Z,100454.64
2023-03-22T08:50:48.711Z,100448.77
2023-03-22T08:53:21.269Z,100449.49
2023-03-22T08:55:53.138Z,100443.80
2023-03-22T08:58:27.452Z,100439.77
2023-03-22T09:00:59.387Z,100437.42
2023-03-22T09:03:31.592Z,100443.35
2023-03-22T09:06:03.466Z,100444.25
2023-03-22T09:08:35.436Z,100441.11
2023-03-22T09:11:08.990Z,100436.12
2023-03-22T09:13:41.156Z,100430.84
2023-03-22T09:16:13.155Z,100436.69
2023-03-22T09:18:48.231Z,100435.79
2023-03-22T09:21:21.929Z,100431.79
2023-03-22T09:23:54.378Z,100437.14
2023-03-22T09:26:29.304Z,100430.38
2023-03-22T09:29:01.584Z,100422.34
2023-03-22T09:31:33.440Z,100418.73
2023-03-22T09:34:05.821Z,100415.45
2023-03-22T09:36:38.221Z,100415.33
2023-03-22T09:39:10.603Z,100412.36
2023-03-22T09:41:45.814Z,100412.86
2023-03-22T09:44:19.725Z,100409.89
2023-03-22T09:46:53.936Z,100407.92
2023-03-22T09:49:30.385Z,100401.17
2023-03-22T09:52:03.639Z,100401.77
2023-03-22T09:54:37.474Z,100398.36
2023-03-22T09:57:13.021Z,100390.80
2023-03-22T09:59:48.456Z,100389.73
2023-03-22T10:02:38.944Z,100386.44
2023-03-22T10:05:26.247Z,100375.02
2023-03-22T10:08:22.809Z,100372.23
2023-03-22T10:10:54.911Z,100372.13
2023-03-22T10:13:31.593Z,100370.60
2023-03-22T10:16:05.462Z,100378.36
2023-03-22T10:18:39.392Z,100378.02
2023-03-22T10:21:10.421Z,100387.31
2023-03-22T10:23:46.662Z,100385.16
2023-03-22T10:26:22.803Z,100381.39
2023-03-22T10:29:03.767Z,100380.45
2023-03-22T10:31:36.790Z,100378.52
2023-03-22T10:34:13.458Z,100376.14
2023-03-22T10:36:46.823Z,100375.65
2023-03-22T10:39:27.289Z,100374.70
2023-03-22T10:42:01.387Z,100372.73
2023-03-22T10:44:34.973Z,100379.21
2023-03-22T10:47:11.089Z,100377.30
2023-03-22T10:49:45.947Z,100374.19
2023-03-22T10:52:27.461Z,100376.17
2023-03-22T10:55:03.795Z,100373.48
2023-03-22T10:57:36.455Z,100372.54
2023-03-22T11:00:11.716Z,100370.14
2023-03-22T11:02:52.909Z,100368.45
2023-03-22T11:05:27.164Z,100368.15
2023-03-22T11:08:00.140Z,100365.60
2023-03-22T11:10:33.353Z,100360.94
2023-03-22T11:13:21.706Z,100356.44
2023-03-22T11:15:56.502Z,100352.42
2023-03-22T11:18:33.379Z,100351.06
2023-03-22T11:21:09.837Z,100346.80
2023-03-22T11:23:44.836Z,100351.59
2023-03-22T11:26:28.631Z,100352.55
2023-03-22T11:29:14.695Z,100348.36
2023-03-22T11:31:58.855Z,100347.75
2023-03-22T11:34:32.218Z,100344.84
2023-03-22T11:37:04.100Z,100339.70
2023-03-22T11:39:36.499Z,100336.89
2023-03-22T11:42:09.868Z,100337.11
2023-03-22T11:44:42.070Z,100333.93
2023-03-22T11:47:15.796Z,100333.27
2023-03-22T11:49:49.804Z,100321.41
2023-03-22T11:52:24.827Z,100322.30
2023-03-22T11:54:57.518Z,100326.10
2023-03-22T11:57:32.286Z,100318.98
2023-03-22T12:00:09.729Z,100317.96
2023-03-22T12:02:46.535Z,100312.79
2023-03-22T12:05:23.482Z,100306.81
2023-03-22T12:07:58.931Z,100301.53
2023-03-22T12:10:32.960Z,100294.27
2023-03-22T12:13:04.654Z,100290.90
2023-03-22T12:15:40.223Z,100288.46
2023-03-22T12:18:16.529Z,100291.68
2023-03-22T12:20:53.610Z,100284.39
2023-03-22T12:23:27.159Z,100283.90
2023-03-22T12:26:03.871Z,100283.20
2023-03-22T12:28:40.629Z,100283.70
2023-03-22T12:31:17.715Z,100280.04
2023-03-22T12:33:50.485Z,100281.13
2023-03-22T12:36:25.171Z,100273.55
2023-03-22T12:38:59.048Z,100268.27
2023-03-22T12:41:35.382Z,100264.33
2023-03-22T12:44:13.219Z,100264.64
2023-03-22T12:46:51.544Z,100259.94
2023-03-22T12:49:29.977Z,100256.01
2023-03-22T12:52:12.204Z,100257.33
2023-03-22T12:54:44.940Z,100258.40
2023-03-22T12:57:18.046Z,100261.91
2023-03-22T12:59:52.234Z,100259.16
2023-03-22T13:02:31.060Z,100259.58
2023-03-22T13:05:05.211Z,100253.79
2023-03-22T13:07:41.536Z,100249.06
2023-03-22T13:10:52.160Z,100250.38
2023-03-22T13:13:48.025Z,100247.48
2023-03-22T13:16:25.896Z,100244.79
2023-03-22T13:19:03.444Z,100242.69
2023-03-22T13:21:39.081Z,100241.92
2023-03-22T13:24:27.117Z,100239.02
2023-03-22T13:27:02.160Z,100235.21
2023-03-22T13:29:39.164Z,100231.56
2023-03-22T13:32:30.318Z,100229.18
2023-03-22T13:35:02.823Z,100227.55
2023-03-22T13:37:36.983Z,100226.48
2023-03-22T13:40:25.327Z,100222.73
2023-03-22T13:42:57.299Z,100227.50
2023-03-22T13:45:34.615Z,100223.61
2023-03-22T13:48:11.337Z,100220.85
2023-03-22T13:50:43.709Z,100217.95
2023-03-22T13:53:22.089Z,100221.63
2023-03-22T13:56:04.935Z,100220.17
2023-03-22T13:58:53.824Z,100211.79
2023-03-22T14:01:31.810Z,100207.06
2023-03-22T14:04:06.010Z,100205.06
2023-03-22T14:06:44.066Z,100207.59
2023-03-22T14:09:24.685Z,100204.53
2023-03-22T14:12:00.351Z,100206.83
2023-03-22T14:14:36.814Z,100207.07
2023-03-22T14:17:17.669Z,100204.61
2023-03-22T14:19:50.692Z,100207.88
